Time;durP1;ratioP1;P1;durP2;ratioP2;P2;SDS_P1;SDS_P2;PMS_P1;PMS_P2;Temp;Humidity;BMP_temperature;BMP_pressure;BME280_temperature;BME280_humidity;BME280_pressure;Samples;Min_cycle;Max_cycle;Signal;HPM_P1;HPM_P2
2022/01/13 00:01:57;;;;;;;19.50;8.98;;;-5.60;99.90;;;;;;5080164;28;20044;-68
2022/01/13 00:04:24;;;;;;;14.82;8.57;;;-5.70;99.90;;;;;;5078911;28;20093;-69
2022/01/13 00:06:51;;;;;;;16.98;9.48;;;-5.70;99.90;;;;;;5080167;28;20048;-68
2022/01/13 00:09:18;;;;;;;17.52;9.23;;;-5.70;99.90;;;;;;5079699;28;20113;-68
2022/01/13 00:11:47;;;;;;;16.35;9.02;;;-5.80;99.90;;;;;;5080137;28;20572;-69
2022/01/13 00:19:35;;;;;;;17.08;9.65;;;-5.90;99.90;;;;;;5079099;28;20180;-68
2022/01/13 00:22:17;;;;;;;17.58;8.30;;;-5.90;99.90;;;;;;5079977;28;20081;-68
2022/01/13 00:24:48;;;;;;;16.23;8.77;;;-5.90;99.90;;;;;;5080175;28;20109;-69
2022/01/13 00:27:16;;;;;;;18.17;8.23;;;-5.90;99.90;;;;;;5080589;28;20554;-68
2022/01/13 00:29:45;;;;;;;16.15;8.50;;;-5.90;99.90;;;;;;5081597;28;20441;-69
2022/01/13 00:32:14;;;;;;;15.60;8.88;;;-5.80;99.90;;;;;;5083946;28;20336;-68
2022/01/13 00:34:43;;;;;;;17.13;9.57;;;-5.80;99.90;;;;;;5080491;28;20044;-68
2022/01/13 00:37:10;;;;;;;18.20;10.27;;;-5.80;99.90;;;;;;5083445;28;20093;-69
2022/01/13 00:39:37;;;;;;;16.92;9.15;;;-5.80;99.90;;;;;;5083139;28;20094;-68
2022/01/13 00:42:04;;;;;;;18.95;9.93;;;-5.70;99.90;;;;;;5083153;28;20044;-68
2022/01/13 00:44:36;;;;;;;16.15;8.18;;;-5.70;99.90;;;;;;5083881;28;20575;-68
2022/01/13 00:47:08;;;;;;;20.70;10.50;;;-5.70;99.90;;;;;;5084058;28;20563;-68
2022/01/13 00:49:35;;;;;;;19.92;10.23;;;-5.70;99.90;;;;;;5083174;28;20044;-69
2022/01/13 00:52:04;;;;;;;20.20;9.95;;;-5.70;99.90;;;;;;5083712;28;20056;-69
2022/01/13 00:54:32;;;;;;;14.68;8.02;;;-5.60;99.90;;;;;;5083600;28;20105;-69
2022/01/13 00:56:59;;;;;;;15.05;8.55;;;-5.60;99.90;;;;;;5082599;28;20117;-68
2022/01/13 00:59:27;;;;;;;16.60;10.18;;;-5.60;99.90;;;;;;5083158;28;20040;-68
2022/01/13 01:01:54;;;;;;;17.42;9.73;;;-5.60;99.90;;;;;;5084298;28;20101;-69
2022/01/13 01:04:23;;;;;;;18.00;9.35;;;-5.50;99.90;;;;;;5083295;28;20050;-68
2022/01/13 01:06:51;;;;;;;17.52;9.15;;;-5.50;99.90;;;;;;5083545;28;20059;-68
2022/01/13 01:09:30;;;;;;;17.80;9.77;;;-5.50;99.90;;;;;;5082415;28;20106;-68
2022/01/13 01:11:56;;;;;;;17.55;9.60;;;-5.40;99.90;;;;;;5082795;28;20048;-68
2022/01/13 01:14:25;;;;;;;16.90;9.50;;;-5.40;99.90;;;;;;5082898;28;20433;-68
2022/01/13 01:16:51;;;;;;;18.60;9.43;;;-5.40;99.90;;;;;;5082963;28;20048;-68
2022/01/13 01:19:26;;;;;;;18.35;10.38;;;-5.40;99.90;;;;;;5082113;28;20093;-68
2022/01/13 01:22:29;;;;;;;20.73;10.20;;;-5.40;99.90;;;;;;5082803;28;20032;-68
2022/01/13 01:25:03;;;;;;;18.48;9.82;;;-5.40;99.90;;;;;;5082399;28;20074;-68
2022/01/13 01:27:38;;;;;;;20.88;10.32;;;-5.40;99.90;;;;;;5083281;28;20471;-69
2022/01/13 01:30:13;;;;;;;19.63;9.55;;;-5.40;99.90;;;;;;5082285;28;20252;-68
2022/01/13 01:32:41;;;;;;;20.67;10.13;;;-5.40;99.90;;;;;;5062009;28;20564;-68
2022/01/13 01:35:15;;;;;;;19.58;9.25;;;-5.40;99.90;;;;;;5070063;28;20105;-68
2022/01/13 01:37:43;;;;;;;23.80;10.02;;;-5.40;99.90;;;;;;5082132;28;20586;-68
2022/01/13 01:40:12;;;;;;;21.23;11.27;;;-5.40;99.90;;;;;;5081580;28;20545;-68
2022/01/13 01:42:39;;;;;;;20.73;9.75;;;-5.40;99.90;;;;;;5081400;28;20611;-69
2022/01/13 01:45:08;;;;;;;17.23;9.90;;;-5.40;99.90;;;;;;5083009;28;20486;-68
2022/01/13 01:47:35;;;;;;;22.13;10.77;;;-5.40;99.90;;;;;;5080367;28;20540;-69
2022/01/13 01:50:11;;;;;;;26.80;13.05;;;-5.30;99.90;;;;;;5082593;28;20562;-68
2022/01/13 01:52:39;;;;;;;22.23;11.82;;;-5.40;99.90;;;;;;5082489;28;20577;-68
2022/01/13 01:55:07;;;;;;;24.10;11.07;;;-5.40;99.90;;;;;;5082857;28;20044;-69
2022/01/13 01:57:34;;;;;;;20.42;10.48;;;-5.40;99.90;;;;;;5083480;28;20048;-69
2022/01/13 02:00:02;;;;;;;22.30;11.23;;;-5.40;99.90;;;;;;5081816;28;20044;-68
2022/01/13 02:02:38;;;;;;;19.45;9.65;;;-5.40;99.90;;;;;;5082249;28;20472;-68
2022/01/13 02:05:05;;;;;;;22.40;10.85;;;-5.50;99.90;;;;;;5083044;28;20788;-68
2022/01/13 02:07:32;;;;;;;21.25;9.75;;;-5.50;99.90;;;;;;5083173;28;20047;-68
2022/01/13 02:09:59;;;;;;;17.42;9.02;;;-5.50;99.90;;;;;;5080826;28;20095;-68
2022/01/13 02:12:33;;;;;;;20.40;10.07;;;-5.40;99.90;;;;;;5082479;28;20059;-68
2022/01/13 02:15:28;;;;;;;22.15;10.98;;;-5.50;99.90;;;;;;5082491;28;20044;-69
2022/01/13 02:17:51;;;;;;;22.65;10.45;;;-5.50;99.90;;;;;;5082245;28;20101;-68
2022/01/13 02:20:18;;;;;;;20.80;11.13;;;-5.50;99.90;;;;;;5081001;28;20566;-68
2022/01/13 02:22:45;;;;;;;21.23;9.63;;;-5.50;99.90;;;;;;5081734;28;20044;-68
2022/01/13 02:25:14;;;;;;;19.45;9.95;;;-5.50;99.90;;;;;;5081718;28;20040;-68
2022/01/13 02:27:42;;;;;;;16.25;9.55;;;-5.50;99.90;;;;;;5081686;28;20073;-68
2022/01/13 02:30:09;;;;;;;19.38;9.15;;;-5.50;99.90;;;;;;5081695;28;20590;-68
2022/01/13 02:32:36;;;;;;;15.45;8.70;;;-5.60;99.90;;;;;;5080977;28;20055;-68
2022/01/13 02:35:04;;;;;;;15.43;8.35;;;-5.60;99.90;;;;;;5081907;28;20486;-68
2022/01/13 02:37:30;;;;;;;15.73;8.85;;;-5.60;99.90;;;;;;5095310;28;20051;-68
2022/01/13 02:39:57;;;;;;;15.40;8.52;;;-5.60;99.90;;;;;;5101047;28;20822;-67
2022/01/13 02:42:25;;;;;;;14.55;8.85;;;-5.60;99.90;;;;;;5101987;28;20079;-68
2022/01/13 02:45:02;;;;;;;18.38;9.90;;;-5.60;99.90;;;;;;5101570;28;20113;-68
2022/01/13 02:47:47;;;;;;;17.30;9.40;;;-5.70;99.90;;;;;;5082100;28;20426;-68
2022/01/13 02:50:14;;;;;;;17.13;9.90;;;-5.60;99.90;;;;;;5080474;28;20129;-68
2022/01/13 02:52:41;;;;;;;18.13;9.70;;;-5.60;99.90;;;;;;5081840;28;20270;-68
2022/01/13 02:55:08;;;;;;;16.90;9.18;;;-5.60;99.90;;;;;;5081151;28;20055;-68
2022/01/13 02:57:36;;;;;;;16.70;9.68;;;-5.60;99.90;;;;;;5081538;28;20039;-68
2022/01/13 03:00:04;;;;;;;18.00;9.15;;;-5.60;99.90;;;;;;5080240;28;20044;-68
2022/01/13 03:02:31;;;;;;;20.90;9.82;;;-5.70;99.90;;;;;;5081075;28;20040;-68
2022/01/13 03:04:59;;;;;;;20.60;10.00;;;-5.70;99.90;;;;;;5081240;28;20048;-68
2022/01/13 03:07:27;;;;;;;15.07;8.32;;;-5.70;99.90;;;;;;5070229;28;20460;-68
2022/01/13 03:09:53;;;;;;;20.13;10.18;;;-5.70;99.90;;;;;;5088272;28;20032;-68
2022/01/13 03:12:24;;;;;;;19.55;9.98;;;-5.70;99.90;;;;;;5080923;28;20241;-68
2022/01/13 03:14:52;;;;;;;16.80;8.40;;;-5.70;99.90;;;;;;5081497;28;20097;-68
2022/01/13 03:17:18;;;;;;;16.65;9.43;;;-5.80;99.90;;;;;;5080536;28;20555;-68
2022/01/13 03:19:45;;;;;;;19.48;9.40;;;-5.80;99.90;;;;;;5080422;28;20105;-68
2022/01/13 03:22:14;;;;;;;22.88;10.40;;;-5.80;99.90;;;;;;5080734;28;20047;-68
2022/01/13 03:24:41;;;;;;;21.48;10.95;;;-5.80;99.90;;;;;;5080830;28;20124;-68
2022/01/13 03:27:12;;;;;;;17.00;10.13;;;-5.90;99.90;;;;;;5081205;28;20039;-68
2022/01/13 03:29:39;;;;;;;18.80;9.73;;;-5.90;99.90;;;;;;5080271;28;20056;-68
2022/01/13 03:32:06;;;;;;;24.52;12.27;;;-5.90;99.90;;;;;;5080702;28;20040;-68
2022/01/13 03:34:32;;;;;;;21.98;10.95;;;-6.00;99.90;;;;;;5080972;28;20097;-68
2022/01/13 03:36:59;;;;;;;22.60;10.90;;;-6.00;99.90;;;;;;5087373;28;20036;-69
2022/01/13 03:39:27;;;;;;;23.70;11.07;;;-6.00;99.90;;;;;;5098908;28;20574;-68
2022/01/13 03:41:54;;;;;;;18.67;10.40;;;-6.00;99.90;;;;;;5100757;28;20039;-68
2022/01/13 03:44:27;;;;;;;20.33;10.85;;;-6.00;99.90;;;;;;5099358;28;20528;-68
2022/01/13 03:47:01;;;;;;;20.80;10.40;;;-6.00;99.90;;;;;;5080549;28;20460;-68
2022/01/13 03:49:29;;;;;;;26.50;13.55;;;-6.00;99.90;;;;;;5080439;28;20717;-68
2022/01/13 03:51:58;;;;;;;20.58;11.32;;;-6.00;99.90;;;;;;5080434;28;20052;-68
2022/01/13 03:54:31;;;;;;;27.65;10.57;;;-6.10;99.90;;;;;;5080509;28;20476;-68
2022/01/13 03:57:35;;;;;;;19.15;10.15;;;-6.20;99.90;;;;;;5080563;28;20056;-68
2022/01/13 04:00:10;;;;;;;16.17;9.35;;;-6.30;99.90;;;;;;5080573;28;20040;-69
2022/01/13 04:02:39;;;;;;;20.10;10.00;;;-6.30;99.90;;;;;;5080153;28;20263;-68
2022/01/13 04:05:06;;;;;;;21.20;10.23;;;-6.40;99.90;;;;;;5084971;28;20143;-68
2022/01/13 04:07:33;;;;;;;26.05;11.95;;;-6.50;99.90;;;;;;5083966;28;20105;-68
2022/01/13 04:10:00;;;;;;;24.77;11.32;;;-6.50;99.90;;;;;;5084047;28;20044;-68
2022/01/13 04:12:27;;;;;;;22.90;12.07;;;-6.50;99.90;;;;;;5084253;28;20047;-68
2022/01/13 04:15:02;;;;;;;28.40;13.63;;;-6.60;99.90;;;;;;5084452;28;20075;-68
2022/01/13 04:17:29;;;;;;;28.67;12.65;;;-6.60;99.90;;;;;;5084137;28;20097;-68
2022/01/13 04:19:56;;;;;;;32.53;15.68;;;-6.60;99.90;;;;;;5084059;28;20078;-68
2022/01/13 04:22:24;;;;;;;38.13;16.58;;;-6.60;99.90;;;;;;5084695;28;20067;-68
2022/01/13 04:24:52;;;;;;;36.47;15.35;;;-6.50;99.90;;;;;;5084185;28;20036;-68
2022/01/13 04:27:36;;;;;;;42.58;17.55;;;-6.50;99.90;;;;;;5085114;28;20463;-68
2022/01/13 04:32:42;;;;;;;27.88;13.77;;;-6.40;99.90;;;;;;5064142;28;20045;-68
2022/01/13 04:35:10;;;;;;;36.05;16.40;;;-6.40;99.90;;;;;;5063802;28;20052;-68
2022/01/13 04:37:37;;;;;;;44.65;18.02;;;-6.40;99.90;;;;;;5067635;28;20036;-68
2022/01/13 04:40:08;;;;;;;48.05;18.67;;;-6.30;99.90;;;;;;5083411;28;20047;-68
2022/01/13 04:42:37;;;;;;;45.08;19.63;;;-6.30;99.90;;;;;;5084600;28;20040;-68
2022/01/13 04:45:05;;;;;;;45.88;19.42;;;-6.30;99.90;;;;;;5084453;28;20044;-68
2022/01/13 04:47:32;;;;;;;42.17;18.15;;;-6.20;99.90;;;;;;5084643;28;20607;-68
2022/01/13 04:49:58;;;;;;;47.30;17.70;;;-6.20;99.90;;;;;;5082918;28;20058;-68
2022/01/13 04:52:25;;;;;;;44.47;18.60;;;-6.20;99.90;;;;;;5083140;28;20101;-69
2022/01/13 04:54:52;;;;;;;42.35;17.67;;;-6.20;99.90;;;;;;5081937;28;20456;-68
2022/01/13 04:57:19;;;;;;;52.78;21.50;;;-6.10;99.90;;;;;;5083388;28;20107;-68
2022/01/13 04:59:46;;;;;;;75.18;24.63;;;-6.10;99.90;;;;;;5083003;28;20131;-68
2022/01/13 05:02:16;;;;;;;65.95;22.73;;;-6.10;99.90;;;;;;5083382;28;20494;-68
2022/01/13 05:04:43;;;;;;;75.97;25.40;;;-6.10;99.90;;;;;;5083344;28;20036;-68
2022/01/13 05:07:10;;;;;;;68.38;25.92;;;-6.10;99.90;;;;;;5082328;28;20442;-68
2022/01/13 05:09:37;;;;;;;77.30;28.30;;;-6.10;99.90;;;;;;5082461;28;20476;-68
2022/01/13 05:12:04;;;;;;;68.93;26.35;;;-6.00;99.90;;;;;;5082631;28;20051;-68
2022/01/13 05:14:31;;;;;;;81.03;29.17;;;-6.00;99.90;;;;;;5082542;28;20075;-68
2022/01/13 05:17:09;;;;;;;65.10;25.67;;;-5.90;99.90;;;;;;5083111;28;20048;-67
2022/01/13 05:19:41;;;;;;;72.07;25.67;;;-5.90;99.90;;;;;;5083130;28;20071;-69
2022/01/13 05:24:34;;;;;;;65.22;23.15;;;-5.80;99.90;;;;;;5083482;28;20047;-68
2022/01/13 05:27:01;;;;;;;66.32;24.65;;;-5.80;99.90;;;;;;5083124;28;20082;-69
2022/01/13 05:29:28;;;;;;;63.05;23.92;;;-5.70;99.90;;;;;;5082572;28;20048;-68
2022/01/13 05:31:54;;;;;;;62.38;24.00;;;-5.70;99.90;;;;;;5082949;28;20040;-68
2022/01/13 05:34:21;;;;;;;62.13;22.15;;;-5.70;99.90;;;;;;5083461;28;20047;-68
2022/01/13 05:37:08;;;;;;;60.28;24.70;;;-5.60;99.90;;;;;;5082466;28;20500;-67
2022/01/13 05:39:35;;;;;;;63.85;25.02;;;-5.60;99.90;;;;;;5081081;28;20068;-66
2022/01/13 05:42:02;;;;;;;50.00;20.20;;;-5.50;99.90;;;;;;5081974;28;20500;-67
2022/01/13 05:44:29;;;;;;;52.58;20.83;;;-5.50;99.90;;;;;;5082473;28;20052;-67
2022/01/13 05:46:55;;;;;;;62.08;22.70;;;-5.50;99.90;;;;;;5082277;28;20040;-67
2022/01/13 05:49:22;;;;;;;62.00;26.48;;;-5.50;99.90;;;;;;5082252;28;20040;-67
2022/01/13 05:51:49;;;;;;;57.40;24.30;;;-5.50;99.90;;;;;;5083114;28;20044;-67
2022/01/13 05:54:16;;;;;;;48.80;22.60;;;-5.50;99.90;;;;;;5083053;28;20060;-67
2022/01/13 05:56:42;;;;;;;55.13;22.45;;;-5.60;99.90;;;;;;5082846;28;20051;-67
2022/01/13 05:59:09;;;;;;;55.67;21.77;;;-5.60;99.90;;;;;;5080101;28;20048;-67
2022/01/13 06:01:36;;;;;;;44.60;20.23;;;-5.60;99.90;;;;;;5083406;28;20257;-67
2022/01/13 06:04:03;;;;;;;47.58;19.95;;;-5.60;99.90;;;;;;5083164;28;20059;-67
2022/01/13 06:06:30;;;;;;;48.05;22.15;;;-5.60;99.90;;;;;;5081253;28;20201;-71
2022/01/13 06:08:56;;;;;;;46.90;20.05;;;-5.60;99.90;;;;;;5082486;28;20577;-58
2022/01/13 06:11:25;;;;;;;56.72;26.00;;;-5.60;99.90;;;;;;5082445;28;20055;-58
2022/01/13 06:13:52;;;;;;;53.83;22.98;;;-5.60;99.90;;;;;;5081150;28;20901;-58
2022/01/13 06:16:19;;;;;;;48.13;22.30;;;-5.60;99.90;;;;;;5081913;28;20113;-58
2022/01/13 06:18:46;;;;;;;55.72;24.17;;;-5.60;99.90;;;;;;5080696;28;20510;-58
2022/01/13 06:21:12;;;;;;;54.13;23.02;;;-5.50;99.90;;;;;;5081588;28;20128;-58
2022/01/13 06:23:39;;;;;;;52.78;22.77;;;-5.50;99.90;;;;;;5082591;28;20048;-58
2022/01/13 06:26:06;;;;;;;56.95;23.98;;;-5.50;99.90;;;;;;5081566;28;20399;-58
2022/01/13 06:28:33;;;;;;;52.45;24.15;;;-5.50;99.90;;;;;;5080210;28;20477;-58
2022/01/13 06:31:00;;;;;;;57.10;23.10;;;-5.50;99.90;;;;;;5080825;28;20040;-58
2022/01/13 06:33:28;;;;;;;50.78;22.55;;;-5.50;99.90;;;;;;5081156;28;20125;-58
2022/01/13 06:35:55;;;;;;;43.67;19.73;;;-5.50;99.90;;;;;;5081609;28;20093;-59
2022/01/13 06:38:23;;;;;;;48.53;22.63;;;-5.40;99.90;;;;;;5081306;28;20109;-58
2022/01/13 06:40:51;;;;;;;50.72;21.00;;;-5.40;99.90;;;;;;5079459;28;20050;-58
2022/01/13 06:43:18;;;;;;;50.80;21.65;;;-5.40;99.90;;;;;;5081090;28;20067;-58
2022/01/13 06:45:46;;;;;;;52.65;21.02;;;-5.40;99.90;;;;;;5082538;28;20147;-58
2022/01/13 06:48:13;;;;;;;54.63;23.02;;;-5.40;99.90;;;;;;5081816;28;20514;-59
2022/01/13 06:50:40;;;;;;;52.10;23.33;;;-5.50;99.90;;;;;;5081910;28;20036;-58
2022/01/13 06:53:06;;;;;;;50.45;22.20;;;-5.50;99.90;;;;;;5082364;28;20048;-58
2022/01/13 06:55:33;;;;;;;54.25;21.92;;;-5.50;99.90;;;;;;5081222;28;20048;-58
2022/01/13 06:58:00;;;;;;;48.92;22.15;;;-5.60;99.90;;;;;;5081865;28;20047;-58
2022/01/13 07:00:27;;;;;;;51.20;24.25;;;-5.60;99.90;;;;;;5081124;28;20063;-58
2022/01/13 07:02:56;;;;;;;40.80;19.25;;;-5.60;99.90;;;;;;5079451;28;20036;-58
2022/01/13 07:05:23;;;;;;;53.88;21.80;;;-5.70;99.90;;;;;;5080735;28;20217;-58
2022/01/13 07:07:50;;;;;;;49.05;21.75;;;-5.60;99.90;;;;;;5081070;28;20040;-58
2022/01/13 07:10:17;;;;;;;48.33;20.77;;;-5.70;99.90;;;;;;5081107;28;20490;-59
2022/01/13 07:12:43;;;;;;;43.42;20.95;;;-5.60;99.90;;;;;;5080204;28;20052;-59
2022/01/13 07:15:11;;;;;;;55.25;23.42;;;-5.60;99.90;;;;;;5081447;28;20128;-58
2022/01/13 07:17:39;;;;;;;49.03;21.23;;;-5.60;99.90;;;;;;5080805;28;20092;-58
2022/01/13 07:20:06;;;;;;;41.15;19.35;;;-5.60;99.90;;;;;;5079815;28;20074;-58
2022/01/13 07:22:33;;;;;;;39.53;19.00;;;-5.50;99.90;;;;;;5080825;28;20051;-58
2022/01/13 07:25:00;;;;;;;47.45;20.92;;;-5.50;99.90;;;;;;5081703;28;20258;-58
2022/01/13 07:27:27;;;;;;;44.53;20.88;;;-5.50;99.90;;;;;;5080137;28;20040;-58
2022/01/13 07:29:54;;;;;;;42.90;20.75;;;-5.40;99.90;;;;;;5080243;28;20092;-58
2022/01/13 07:32:20;;;;;;;57.92;24.08;;;-5.40;99.90;;;;;;5080611;28;20318;-58
2022/01/13 07:34:47;;;;;;;54.08;23.75;;;-5.40;99.90;;;;;;5080492;28;20488;-58
2022/01/13 07:37:14;;;;;;;53.72;24.88;;;-5.40;99.90;;;;;;5082123;28;20056;-58
2022/01/13 07:39:42;;;;;;;47.97;22.27;;;-5.40;99.90;;;;;;5084087;28;20047;-58
2022/01/13 07:42:10;;;;;;;57.38;24.80;;;-5.50;99.90;;;;;;5082938;28;20044;-58
2022/01/13 07:44:36;;;;;;;49.08;23.13;;;-5.50;99.90;;;;;;5085172;28;20559;-58
2022/01/13 07:47:04;;;;;;;53.60;22.30;;;-5.50;99.90;;;;;;5085870;28;20051;-58
2022/01/13 07:49:31;;;;;;;52.40;24.13;;;-5.50;99.90;;;;;;5084259;28;20044;-58
2022/01/13 07:51:57;;;;;;;52.05;23.90;;;-5.50;99.90;;;;;;5085357;28;20700;-58
2022/01/13 07:54:27;;;;;;;49.22;21.77;;;-5.50;99.90;;;;;;5085410;28;20105;-58
2022/01/13 07:56:58;;;;;;;52.40;23.00;;;-5.50;99.90;;;;;;5084866;28;20055;-58
2022/01/13 07:59:29;;;;;;;49.40;22.48;;;-5.50;99.90;;;;;;5085155;28;20048;-58
2022/01/13 08:01:57;;;;;;;51.42;23.15;;;-5.50;99.90;;;;;;5084019;28;20036;-58
2022/01/13 08:04:24;;;;;;;48.83;20.70;;;-5.50;99.90;;;;;;5082867;28;20047;-58
2022/01/13 08:06:51;;;;;;;48.50;23.33;;;-5.40;99.90;;;;;;5084522;28;20032;-58
2022/01/13 08:09:21;;;;;;;49.67;23.20;;;-5.40;99.90;;;;;;5083659;28;20048;-57
2022/01/13 08:11:48;;;;;;;50.75;24.50;;;-5.40;99.90;;;;;;5083303;28;20044;-59
2022/01/13 08:14:15;;;;;;;55.70;25.52;;;-5.30;99.90;;;;;;5080256;28;20282;-59
2022/01/13 08:16:44;;;;;;;50.92;23.08;;;-5.30;99.90;;;;;;5083107;28;20347;-59
2022/01/13 08:21:57;;;;;;;56.00;23.20;;;-5.30;99.90;;;;;;5084452;28;20085;-60
2022/01/13 08:24:24;;;;;;;54.45;23.85;;;-5.20;99.90;;;;;;5077618;28;20047;-58
2022/01/13 08:26:50;;;;;;;56.22;26.08;;;-5.20;99.90;;;;;;5078305;28;20108;-56
2022/01/13 08:29:17;;;;;;;53.88;24.85;;;-5.20;99.90;;;;;;5077252;28;20374;-56
2022/01/13 08:31:45;;;;;;;59.15;24.20;;;-5.20;99.90;;;;;;5079326;28;20048;-57
2022/01/13 08:34:14;;;;;;;52.78;23.30;;;-5.20;99.90;;;;;;5079074;28;20054;-57
2022/01/13 08:36:40;;;;;;;55.75;26.30;;;-5.20;99.90;;;;;;5078960;28;20048;-57
2022/01/13 08:39:07;;;;;;;54.58;25.23;;;-5.20;99.90;;;;;;5078874;28;20051;-57
2022/01/13 08:41:40;;;;;;;57.13;24.63;;;-5.20;99.90;;;;;;5078060;28;20506;-57
2022/01/13 08:44:07;;;;;;;60.63;27.25;;;-5.20;99.90;;;;;;5077901;28;20476;-57
2022/01/13 08:46:34;;;;;;;60.75;28.45;;;-5.20;99.90;;;;;;5078391;28;20040;-57
2022/01/13 08:49:00;;;;;;;60.28;25.90;;;-5.10;99.90;;;;;;5077733;28;20055;-57
2022/01/13 08:51:27;;;;;;;57.40;24.35;;;-5.10;99.90;;;;;;5078410;28;20383;-57
2022/01/13 08:53:54;;;;;;;58.03;25.00;;;-5.00;99.90;;;;;;5077136;28;20082;-57
2022/01/13 08:56:21;;;;;;;56.47;25.35;;;-5.00;99.90;;;;;;5078756;28;20129;-57
2022/01/13 08:58:48;;;;;;;61.65;26.48;;;-5.00;99.90;;;;;;5077295;28;20477;-59
2022/01/13 09:01:15;;;;;;;58.75;25.40;;;-4.90;99.90;;;;;;5078008;28;20089;-57
2022/01/13 09:03:42;;;;;;;57.17;25.13;;;-4.90;99.90;;;;;;5078209;28;20036;-56
2022/01/13 09:06:09;;;;;;;50.97;23.90;;;-4.80;99.90;;;;;;5078759;28;20070;-56
2022/01/13 09:08:35;;;;;;;53.70;26.13;;;-4.70;99.90;;;;;;5078868;28;20075;-57
2022/01/13 09:11:03;;;;;;;62.67;29.58;;;-4.70;99.90;;;;;;5078347;28;20040;-54
2022/01/13 09:13:35;;;;;;;57.47;25.70;;;-4.60;99.90;;;;;;5077826;28;20105;-56
2022/01/13 09:16:04;;;;;;;59.67;26.75;;;-4.50;99.90;;;;;;5075729;28;20501;-56
2022/01/13 09:18:48;;;;;;;59.53;25.60;;;-4.50;99.90;;;;;;5077963;28;20296;-56
2022/01/13 09:21:16;;;;;;;57.10;26.70;;;-4.40;99.90;;;;;;5074761;28;20058;-59
2022/01/13 09:23:43;;;;;;;63.58;28.25;;;-4.30;99.90;;;;;;5077703;28;20036;-59
2022/01/13 09:26:10;;;;;;;57.90;26.13;;;-4.20;99.90;;;;;;5076308;28;20089;-58
2022/01/13 09:28:37;;;;;;;66.85;31.95;;;-4.20;99.90;;;;;;5078510;28;20040;-58
2022/01/13 09:31:04;;;;;;;66.95;30.52;;;-4.10;99.90;;;;;;5077122;28;20036;-58
2022/01/13 09:33:32;;;;;;;60.58;28.30;;;-4.00;99.90;;;;;;5078167;28;20060;-59
2022/01/13 09:35:59;;;;;;;63.45;29.10;;;-3.90;99.90;;;;;;5078565;28;20081;-58
2022/01/13 09:38:26;;;;;;;58.22;28.52;;;-3.90;99.90;;;;;;5078252;28;20074;-58
2022/01/13 09:40:54;;;;;;;59.45;26.70;;;-3.90;99.90;;;;;;5076976;28;20083;-58
2022/01/13 09:43:23;;;;;;;64.47;28.02;;;-3.80;99.90;;;;;;5077289;28;20044;-58
2022/01/13 09:45:51;;;;;;;59.53;27.08;;;-3.80;99.90;;;;;;5077242;28;20032;-58
2022/01/13 09:48:18;;;;;;;53.65;26.75;;;-3.70;99.90;;;;;;5077892;28;20827;-59
2022/01/13 09:50:46;;;;;;;56.55;26.90;;;-3.60;99.90;;;;;;5077033;28;20069;-57
2022/01/13 09:53:16;;;;;;;58.55;28.50;;;-3.50;99.90;;;;;;5077326;28;20044;-57
2022/01/13 09:55:45;;;;;;;60.83;29.98;;;-3.40;99.90;;;;;;5067783;28;20125;-57
2022/01/13 09:58:14;;;;;;;67.05;30.50;;;-3.40;99.90;;;;;;5077259;28;20044;-56
2022/01/13 10:00:44;;;;;;;56.95;29.05;;;-3.30;99.90;;;;;;5075496;28;20506;-59
2022/01/13 10:03:22;;;;;;;57.15;28.80;;;-3.30;99.90;;;;;;5077155;28;20619;-58
2022/01/13 10:05:59;;;;;;;57.53;29.77;;;-3.20;99.90;;;;;;5077326;28;20036;-57
2022/01/13 10:08:41;;;;;;;59.03;28.63;;;-3.20;99.90;;;;;;5078443;28;20047;-56
2022/01/13 10:11:48;;;;;;;61.08;30.60;;;-3.10;99.90;;;;;;5077135;28;20453;-55
2022/01/13 10:16:52;;;;;;;57.35;28.95;;;-2.90;99.90;;;;;;5076226;28;20165;-55
2022/01/13 10:19:44;;;;;;;55.33;30.38;;;-2.70;99.90;;;;;;5075625;28;20935;-55
2022/01/13 10:22:14;;;;;;;56.10;28.23;;;-2.70;99.90;;;;;;5077894;28;20257;-56
2022/01/13 10:24:44;;;;;;;53.67;30.25;;;-2.60;99.90;;;;;;5077440;28;20040;-56
2022/01/13 10:27:16;;;;;;;55.08;29.85;;;-2.40;99.90;;;;;;5075092;28;20040;-56
2022/01/13 10:29:53;;;;;;;54.10;28.52;;;-2.30;99.90;;;;;;5076817;28;20525;-54
2022/01/13 10:32:26;;;;;;;62.90;31.88;;;-2.20;99.90;;;;;;5076421;28;20052;-54
2022/01/13 10:35:11;;;;;;;53.47;27.17;;;-2.00;99.90;;;;;;5076169;28;20044;-59
2022/01/13 10:37:41;;;;;;;41.17;24.58;;;-1.80;99.90;;;;;;5077231;28;20569;-58
2022/01/13 10:40:18;;;;;;;48.08;25.77;;;-1.80;99.90;;;;;;5076444;28;20055;-58
2022/01/13 10:45:20;;;;;;;42.15;23.75;;;-1.60;99.90;;;;;;5075988;28;20055;-58
2022/01/13 10:48:02;;;;;;;46.15;26.30;;;-1.50;99.90;;;;;;5055712;28;20465;-55
2022/01/13 10:50:39;;;;;;;40.92;24.02;;;-1.50;99.90;;;;;;5061610;28;20048;-54
2022/01/13 10:53:10;;;;;;;40.60;23.15;;;-1.40;99.90;;;;;;5077110;28;20113;-54
2022/01/13 10:55:41;;;;;;;40.22;22.25;;;-1.40;99.90;;;;;;5064088;28;20048;-58
2022/01/13 10:58:12;;;;;;;41.95;23.60;;;-1.40;99.90;;;;;;5056564;28;20275;-54
2022/01/13 11:00:39;;;;;;;42.70;24.65;;;-1.20;99.90;;;;;;5056308;28;20079;-52
2022/01/13 11:03:18;;;;;;;42.45;24.55;;;-0.90;99.90;;;;;;5056827;28;20044;-56
2022/01/13 11:05:53;;;;;;;40.92;24.70;;;-0.40;99.90;;;;;;5056303;28;20557;-56
2022/01/13 11:08:24;;;;;;;44.47;25.27;;;0.00;99.90;;;;;;5056460;28;20044;-55
2022/01/13 11:10:52;;;;;;;38.35;23.08;;;0.50;99.90;;;;;;5056090;28;21166;-56
2022/01/13 11:13:21;;;;;;;40.33;23.08;;;1.00;99.90;;;;;;5076015;28;20047;-63
2022/01/13 11:15:53;;;;;;;37.63;22.65;;;1.40;99.90;;;;;;5075778;28;20052;-53
2022/01/13 11:18:21;;;;;;;40.97;22.98;;;1.80;99.90;;;;;;5076531;28;20430;-59
2022/01/13 11:20:49;;;;;;;37.85;23.58;;;2.10;99.90;;;;;;5075534;28;20494;-59
2022/01/13 11:23:18;;;;;;;36.90;23.02;;;2.30;99.90;;;;;;5075309;28;20052;-59
2022/01/13 11:25:46;;;;;;;38.08;21.65;;;2.50;99.90;;;;;;5077040;28;20044;-59
2022/01/13 11:28:15;;;;;;;36.83;22.30;;;2.70;99.90;;;;;;5075238;28;20293;-59
2022/01/13 11:30:42;;;;;;;38.38;22.75;;;2.90;99.90;;;;;;5076843;28;20047;-59
2022/01/13 11:33:09;;;;;;;33.90;20.38;;;3.10;99.90;;;;;;5075863;28;20079;-59
2022/01/13 11:35:48;;;;;;;37.65;21.65;;;3.30;99.90;;;;;;5077826;28;20123;-59
2022/01/13 11:38:18;;;;;;;35.78;22.10;;;3.50;99.90;;;;;;5076465;28;20051;-59
2022/01/13 11:40:47;;;;;;;40.25;22.77;;;3.80;99.90;;;;;;5076629;28;20497;-58
2022/01/13 11:43:38;;;;;;;38.17;20.98;;;4.10;99.90;;;;;;5076605;28;20128;-57
2022/01/13 11:46:19;;;;;;;38.17;22.30;;;4.30;99.90;;;;;;5071532;28;20060;-56
2022/01/13 11:49:00;;;;;;;31.88;20.15;;;4.50;99.90;;;;;;5076528;28;20464;-57
2022/01/13 11:51:56;;;;;;;31.08;19.77;;;4.60;99.90;;;;;;5077326;28;20121;-57
2022/01/13 11:54:31;;;;;;;32.25;20.35;;;4.70;99.90;;;;;;5076751;28;20051;-56
2022/01/13 11:57:19;;;;;;;34.53;19.75;;;4.60;98.10;;;;;;5076463;28;20097;-57
2022/01/13 11:59:55;;;;;;;32.28;19.70;;;4.60;97.50;;;;;;5076219;28;20071;-59
2022/01/13 12:02:33;;;;;;;33.58;18.40;;;4.40;97.50;;;;;;5077015;28;20040;-59
2022/01/13 12:05:04;;;;;;;30.05;18.27;;;4.40;97.40;;;;;;5075004;28;20236;-61
2022/01/13 12:07:35;;;;;;;26.85;17.85;;;4.40;97.90;;;;;;5075930;28;20044;-61
2022/01/13 12:10:06;;;;;;;29.80;17.75;;;4.40;96.90;;;;;;5075075;28;20492;-60
2022/01/13 12:12:35;;;;;;;28.30;17.92;;;4.30;96.60;;;;;;5075400;28;20527;-60
2022/01/13 12:15:15;;;;;;;29.35;18.92;;;4.30;96.80;;;;;;5076231;28;20048;-60
2022/01/13 12:17:55;;;;;;;32.75;19.98;;;4.30;95.70;;;;;;5075497;28;20064;-61
2022/01/13 12:20:42;;;;;;;28.52;18.10;;;4.20;95.70;;;;;;5075098;28;20052;-60
2022/01/13 12:23:41;;;;;;;30.38;19.13;;;4.00;96.00;;;;;;5075613;28;20047;-61
2022/01/13 12:26:33;;;;;;;28.83;18.00;;;3.90;96.60;;;;;;5079229;28;20097;-60
2022/01/13 12:29:10;;;;;;;27.92;17.88;;;4.00;96.60;;;;;;5070014;28;20067;-60
2022/01/13 12:31:52;;;;;;;30.83;18.95;;;4.00;96.30;;;;;;5080360;28;20040;-60
2022/01/13 12:34:43;;;;;;;27.83;17.98;;;4.20;96.80;;;;;;5080090;28;20056;-60
2022/01/13 12:37:13;;;;;;;29.65;17.98;;;4.40;96.90;;;;;;5071623;28;20060;-60
2022/01/13 12:39:41;;;;;;;28.83;18.67;;;4.60;95.80;;;;;;5079287;28;20044;-60
2022/01/13 12:42:14;;;;;;;29.75;18.20;;;4.80;94.80;;;;;;5079945;28;20068;-60
2022/01/13 12:47:28;;;;;;;27.90;18.30;;;4.90;94.20;;;;;;5078770;28;20044;-60
2022/01/13 12:49:55;;;;;;;27.38;17.40;;;5.00;93.40;;;;;;5078370;28;20123;-61
2022/01/13 12:52:24;;;;;;;30.08;17.00;;;5.00;93.10;;;;;;5077842;28;20491;-60
2022/01/13 12:54:52;;;;;;;28.55;18.92;;;5.00;93.30;;;;;;5078792;28;20124;-61
2022/01/13 12:57:22;;;;;;;23.92;16.10;;;5.10;92.50;;;;;;5078366;28;20047;-60
2022/01/13 12:59:57;;;;;;;24.13;16.45;;;5.10;91.60;;;;;;5078057;28;20086;-58
2022/01/13 13:02:24;;;;;;;26.10;17.00;;;5.20;92.20;;;;;;5078333;28;20048;-57
2022/01/13 13:04:51;;;;;;;30.52;18.17;;;5.20;91.70;;;;;;5076316;28;20074;-57
2022/01/13 13:07:18;;;;;;;30.75;19.63;;;5.40;91.60;;;;;;5078800;28;20051;-56